^^
Station Historical Data
 
Daily Summary for February 19, 2018 Units:  English    Metric   Both
« Previous Day
Next Day »
Daily Weekly Monthly Yearly Custom
  Current: High: Low: Average:
Temperature: 45.2 °F TemperatureF °F 29.3 °F 36.7 °F
Dew Point: 40.0 °F DewpointF °F 23.1 °F 31.3 °F
Humidity: 82% Humidity% 72% 80%
Wind Speed: 1.0mph WindSpeedMPHmph 0.0mph 1.2mph
Wind Gust: 6.0mph WindSpeedGustMPHmph - -
WindSouth - - South
Pressure: 30.40 in PressureIn in 30.40 in -
Precipitation: 0.01 in      
Historical Graphs
 
 
Tabular Data for February 19, 2018
Time Temperature Dew Point Pressure Wind Wind Speed Wind Gust Humidity Rainfall Rate (Hourly) Conditions
TemperatureF °F DewpointF °F PressureIn in Calm     Humidity% HourlyPrecipIn in Conditions
00:09 30.5 °F 23.2 °F 30.54 in Calm   1.0 mph 74% 0.00 in CLR
00:19 30.8 °F 23.1 °F 30.55 in Calm   1.0 mph 73% 0.00 in CLR
00:29 30.9 °F 23.6 °F 30.55 in Calm   4.0 mph 74% 0.00 in CLR
00:39 30.7 °F 23.7 °F 30.55 in Calm   2.0 mph 75% 0.00 in CLR
00:49 30.4 °F 23.7 °F 30.54 in Calm   1.0 mph 76% 0.00 in CLR
00:59 30.9 °F 24.5 °F 30.54 in Calm   3.0 mph 77% 0.00 in CLR
01:09 30.9 °F 24.8 °F 30.54 in ENE 1.0 mph 5.0 mph 78% 0.00 in CLR
01:19 31.1 °F 25.0 °F 30.54 in ENE 1.0 mph 4.0 mph 78% 0.00 in CLR
01:29 31.3 °F 25.8 °F 30.54 in Calm   3.0 mph 80% 0.00 in CLR
01:39 31.4 °F 26.2 °F 30.54 in NE 1.0 mph 3.0 mph 81% 0.00 in CLR
01:49 31.2 °F 26.3 °F 30.54 in Calm   3.0 mph 82% 0.00 in CLR
01:59 31.2 °F 26.6 °F 30.54 in Calm   1.0 mph 83% 0.00 in CLR
02:09 31.3 °F 26.4 °F 30.54 in Calm   2.0 mph 82% 0.00 in CLR
02:19 31.3 °F 26.7 °F 30.54 in Calm   3.0 mph 83% 0.00 in CLR
02:29 31.2 °F 26.6 °F 30.55 in Calm   1.0 mph 83% 0.00 in CLR
02:39 30.9 °F 26.6 °F 30.55 in Calm   1.0 mph 84% 0.00 in CLR
02:49 30.8 °F 26.2 °F 30.55 in Calm   1.0 mph 83% 0.00 in CLR
02:59 30.9 °F 26.1 °F 30.55 in Calm   2.0 mph 82% 0.00 in CLR
03:09 31.0 °F 25.9 °F 30.55 in Calm   1.0 mph 81% 0.00 in CLR
03:19 31.0 °F 25.6 °F 30.55 in Calm   3.0 mph 80% 0.00 in CLR
03:29 30.6 °F 25.2 °F 30.55 in Calm   3.0 mph 80% 0.00 in CLR
03:39 30.4 °F 25.3 °F 30.55 in Calm   1.0 mph 81% 0.00 in CLR
03:49 30.2 °F 25.1 °F 30.54 in Calm   1.0 mph 81% 0.00 in CLR
04:09 30.0 °F 25.2 °F 30.54 in Calm   1.0 mph 82% 0.00 in CLR
04:19 30.1 °F 25.3 °F 30.54 in Calm   1.0 mph 82% 0.00 in CLR
04:30 30.0 °F 25.2 °F 30.53 in Calm   1.0 mph 82% 0.00 in CLR
04:40 30.0 °F 25.2 °F 30.53 in Calm   2.0 mph 82% 0.00 in CLR
04:49 30.0 °F 25.5 °F 30.54 in NNE 1.0 mph 3.0 mph 83% 0.00 in CLR
04:59 29.9 °F 25.4 °F 30.54 in Calm   1.0 mph 83% 0.00 in CLR
05:09 29.8 °F 25.3 °F 30.55 in Calm   1.0 mph 83% 0.00 in CLR
05:19 29.6 °F 25.4 °F 30.55 in Calm   1.0 mph 84% 0.00 in CLR
05:29 29.3 °F 25.3 °F 30.55 in Calm     85% 0.00 in CLR
05:39 29.6 °F 26.2 °F 30.55 in Calm   1.0 mph 87% 0.00 in CLR
05:49 30.1 °F 26.7 °F 30.55 in Calm   1.0 mph 87% 0.00 in CLR
05:59 30.2 °F 27.1 °F 30.55 in Calm   1.0 mph 88% 0.00 in CLR
06:09 30.3 °F 27.4 °F 30.55 in Calm     89% 0.00 in CLR
06:19 30.4 °F 27.8 °F 30.55 in Calm     90% 0.00 in CLR
06:29 30.6 °F 28.0 °F 30.54 in Calm     90% 0.00 in CLR
06:39 30.5 °F 28.2 °F 30.55 in Calm   1.0 mph 91% 0.00 in CLR
06:49 31.0 °F 28.7 °F 30.55 in Calm   1.0 mph 91% 0.00 in CLR
06:59 30.7 °F 28.1 °F 30.54 in Calm     90% 0.00 in CLR
07:09 30.6 °F 28.3 °F 30.55 in Calm     91% 0.00 in CLR
07:19 30.6 °F 28.5 °F 30.54 in Calm     92% 0.00 in CLR
07:29 30.2 °F 27.9 °F 30.54 in Calm     91% 0.00 in CLR
07:39 30.3 °F 28.3 °F 30.55 in Calm   1.0 mph 92% 0.00 in CLR
07:49 31.1 °F 29.3 °F 30.55 in Calm   1.0 mph 93% 0.00 in CLR
07:59 31.6 °F 29.8 °F 30.55 in NE 1.0 mph 2.0 mph 93% 0.00 in CLR
08:09 32.5 °F 30.7 °F 30.55 in Calm   3.0 mph 93% 0.00 in CLR
08:19 33.5 °F 31.4 °F 30.56 in Calm   1.0 mph 92% 0.00 in CLR
08:29 34.2 °F 31.8 °F 30.55 in Calm     91% 0.00 in CLR
08:39 35.1 °F 32.8 °F 30.55 in Calm   4.0 mph 91% 0.00 in CLR
08:49 36.9 °F 33.6 °F 30.55 in SSW 2.0 mph 5.0 mph 88% 0.00 in CLR
08:59 38.2 °F 34.0 °F 30.54 in Calm   6.0 mph 85% 0.00 in CLR
09:09 39.4 °F 34.6 °F 30.54 in SSW 2.0 mph 9.0 mph 83% 0.00 in CLR
09:19 40.4 °F 35.0 °F 30.55 in SSW 1.0 mph 7.0 mph 81% 0.00 in CLR
09:29 42.0 °F 36.0 °F 30.54 in South 1.0 mph 4.0 mph 79% 0.00 in CLR
09:39 42.5 °F 35.5 °F 30.53 in SSE 3.0 mph 7.0 mph 76% 0.00 in CLR
09:49 42.4 °F 35.7 °F 30.53 in Calm   7.0 mph 77% 0.00 in CLR
09:59 43.3 °F 35.9 °F 30.52 in SSW 1.0 mph 9.0 mph 75% 0.00 in CLR
10:09 43.8 °F 35.7 °F 30.52 in South 3.0 mph 12.0 mph 73% 0.00 in CLR
10:19 44.2 °F 35.7 °F 30.53 in SSW 6.0 mph 13.0 mph 72% 0.00 in CLR
10:29 44.3 °F 35.8 °F 30.53 in SW 3.0 mph 13.0 mph 72% 0.00 in CLR
10:39 43.6 °F 35.5 °F 30.52 in SSW 5.0 mph 9.0 mph 73% 0.00 in CLR
10:49 43.9 °F 35.5 °F 30.52 in South 6.0 mph 10.0 mph 72% 0.00 in CLR
10:59 44.0 °F 35.6 °F 30.52 in South 7.0 mph 14.0 mph 72% 0.00 in CLR
11:09 43.9 °F 35.8 °F 30.52 in SSW 5.0 mph 12.0 mph 73% 0.00 in BKN
11:19 43.9 °F 35.8 °F 30.51 in SSW 5.0 mph 10.0 mph 73% 0.00 in BKN
11:29 44.1 °F 36.0 °F 30.51 in SSW 3.0 mph 9.0 mph 73% 0.00 in BKN
11:39 44.2 °F 36.1 °F 30.50 in SSW 7.0 mph 12.0 mph 73% 0.00 in BKN
11:49 44.2 °F 36.4 °F 30.49 in SSW 5.0 mph 14.0 mph 74% 0.00 in BKN
11:59 44.2 °F 36.5 °F 30.49 in SSW 6.0 mph 12.0 mph 74% 0.00 in BKN
12:09 44.4 °F 36.6 °F 30.48 in South 3.0 mph 9.0 mph 74% 0.00 in BKN
12:19 44.5 °F 36.7 °F 30.46 in SSW 2.0 mph 7.0 mph 74% 0.00 in BKN
12:29 44.8 °F 37.0 °F 30.47 in SSW 3.0 mph 10.0 mph 74% 0.00 in BKN
12:39 44.8 °F 37.0 °F 30.47 in South 3.0 mph 10.0 mph 74% 0.00 in BKN
12:49 44.9 °F 37.4 °F 30.46 in South 1.0 mph 8.0 mph 75% 0.00 in BKN
12:59 45.0 °F 37.9 °F 30.45 in SSW 5.0 mph 12.0 mph 76% 0.00 in BKN
13:09 45.2 °F 37.8 °F 30.44 in SSW 3.0 mph 12.0 mph 75% 0.00 in BKN
13:19 45.3 °F 37.8 °F 30.44 in South 5.0 mph 9.0 mph 75% 0.00 in BKN
13:29 45.5 °F 38.3 °F 30.43 in South 2.0 mph 9.0 mph 76% 0.00 in BKN
13:39 45.6 °F 38.5 °F 30.43 in South 1.0 mph 6.0 mph 76% 0.00 in BKN
13:49 45.7 °F 38.6 °F 30.42 in South 3.0 mph 6.0 mph 76% 0.00 in BKN
13:59 45.6 °F 38.5 °F 30.42 in Calm   8.0 mph 76% 0.00 in BKN
14:09 45.5 °F 38.4 °F 30.42 in South 2.0 mph 8.0 mph 76% 0.00 in BKN
14:29 45.8 °F 39.0 °F 30.42 in South 1.0 mph 5.0 mph 77% 0.00 in BKN
14:39 45.8 °F 39.0 °F 30.42 in South 1.0 mph 5.0 mph 77% 0.00 in BKN
14:49 45.8 °F 39.0 °F 30.41 in SSW 1.0 mph 4.0 mph 77% 0.00 in BKN
14:59 46.0 °F 39.2 °F 30.42 in SSE 1.0 mph 5.0 mph 77% 0.00 in BKN
15:09 45.9 °F 39.1 °F 30.41 in Calm   5.0 mph 77% 0.00 in BKN
15:19 46.0 °F 39.5 °F 30.41 in Calm   1.0 mph 78% 0.00 in BKN
15:30 46.0 °F 39.5 °F 30.41 in Calm   2.0 mph 78% 0.00 in BKN
15:40 45.8 °F 39.7 °F 30.41 in South 1.0 mph 3.0 mph 79% 0.00 in BKN
15:49 45.7 °F 39.6 °F 30.41 in SSE 1.0 mph 4.0 mph 79% 0.00 in BKN
16:00 45.7 °F 39.9 °F 30.40 in SSW 2.0 mph 5.0 mph 80% 0.00 in BKN
16:10 45.6 °F 40.1 °F 30.40 in South 1.0 mph 8.0 mph 81% 0.00 in -DZ
16:19 45.2 °F 40.0 °F 30.40 in South 1.0 mph 6.0 mph 82% 0.01 in -DZ
TarryTown NY Weather
Compliments of Weather Underground - 1.5 mb